createdAt,value
2023-01-25T00:02:37.375Z,2.47
2023-01-25T00:07:57.923Z,2.48
2023-01-25T00:13:18.913Z,2.44
2023-01-25T00:18:39.618Z,2.41
2023-01-25T00:24:00.925Z,2.32
2023-01-25T00:29:22.990Z,2.39
2023-01-25T00:34:50.255Z,2.36
2023-01-25T00:40:12.950Z,2.39
2023-01-25T00:45:33.823Z,2.51
2023-01-25T00:50:54.716Z,2.60
2023-01-25T00:56:15.809Z,2.61
2023-01-25T01:01:36.753Z,2.53
2023-01-25T01:06:58.025Z,2.46
2023-01-25T01:12:19.192Z,2.38
2023-01-25T01:17:40.236Z,2.33
2023-01-25T01:23:00.862Z,2.37
2023-01-25T01:28:22.146Z,2.52
2023-01-25T01:33:43.128Z,2.47
2023-01-25T01:39:04.059Z,2.50
2023-01-25T01:44:45.602Z,2.52
2023-01-25T01:50:18.877Z,2.37
2023-01-25T01:55:41.047Z,2.31
2023-01-25T02:01:02.532Z,2.33
2023-01-25T02:06:52.098Z,2.34
2023-01-25T02:12:13.905Z,2.44
2023-01-25T02:17:38.207Z,2.38
2023-01-25T02:23:05.907Z,2.41
2023-01-25T02:28:32.401Z,2.41
2023-01-25T02:33:54.514Z,2.41
2023-01-25T02:39:20.275Z,2.42
2023-01-25T02:44:43.995Z,2.40
2023-01-25T02:50:05.110Z,2.39
2023-01-25T02:55:27.149Z,2.50
2023-01-25T03:00:48.056Z,2.58
2023-01-25T03:06:09.179Z,2.57
2023-01-25T03:11:29.941Z,2.55
2023-01-25T03:16:52.177Z,2.51
2023-01-25T03:22:16.907Z,2.51
2023-01-25T03:27:38.131Z,2.47
2023-01-25T03:33:04.583Z,2.75
2023-01-25T03:38:31.376Z,2.75
2023-01-25T03:43:53.309Z,2.66
2023-01-25T03:49:14.390Z,2.73
2023-01-25T03:54:35.820Z,2.78
2023-01-25T03:59:57.332Z,2.93
2023-01-25T04:05:19.970Z,2.88
2023-01-25T04:10:41.910Z,2.69
2023-01-25T04:16:04.306Z,2.69
2023-01-25T04:21:50.700Z,2.64
2023-01-25T04:27:13.094Z,2.61
2023-01-25T04:32:47.822Z,2.66
2023-01-25T04:38:23.402Z,2.60
2023-01-25T04:43:46.792Z,2.55
2023-01-25T04:49:09.503Z,2.60
2023-01-25T04:54:30.570Z,2.62
2023-01-25T04:59:51.906Z,2.59
2023-01-25T05:05:14.520Z,2.54
2023-01-25T05:10:49.347Z,2.53
2023-01-25T05:16:16.619Z,2.66
2023-01-25T05:21:56.476Z,2.68
2023-01-25T05:27:19.887Z,2.63
2023-01-25T05:32:50.769Z,2.42
2023-01-25T05:38:12.511Z,2.36
2023-01-25T05:43:36.938Z,2.39
2023-01-25T05:49:15.437Z,2.41
2023-01-25T05:54:36.710Z,2.42
2023-01-25T05:59:59.741Z,2.58
2023-01-25T06:05:21.026Z,2.57
2023-01-25T06:10:42.961Z,2.57
2023-01-25T06:16:04.886Z,2.52
2023-01-25T06:21:37.073Z,2.48
2023-01-25T06:26:58.460Z,2.54
2023-01-25T06:32:18.992Z,2.62
2023-01-25T06:37:40.262Z,2.71
2023-01-25T06:43:11.731Z,2.72
2023-01-25T06:48:33.773Z,2.71
2023-01-25T06:53:54.558Z,2.85
2023-01-25T06:59:16.189Z,2.87
2023-01-25T07:04:36.721Z,2.86
2023-01-25T07:09:58.971Z,2.96
2023-01-25T07:15:19.550Z,2.91
2023-01-25T07:20:39.973Z,3.03
2023-01-25T07:26:01.571Z,3.03
2023-01-25T07:31:21.941Z,3.03
2023-01-25T07:36:43.707Z,3.03
2023-01-25T07:42:04.787Z,2.93
2023-01-25T07:47:26.198Z,2.97
2023-01-25T07:52:47.125Z,2.94
2023-01-25T07:58:10.565Z,2.96
2023-01-25T08:03:31.949Z,3.03
2023-01-25T08:08:52.159Z,3.08
2023-01-25T08:14:13.321Z,3.05
2023-01-25T08:19:34.356Z,3.04
2023-01-25T08:24:55.148Z,3.08
2023-01-25T08:30:16.580Z,3.15
2023-01-25T08:35:37.709Z,3.14
2023-01-25T08:41:06.052Z,3.20
2023-01-25T08:46:31.383Z,3.24
2023-01-25T08:51:52.960Z,3.26
2023-01-25T08:57:13.608Z,3.29
2023-01-25T09:02:34.843Z,3.30
2023-01-25T09:07:56.241Z,3.34
2023-01-25T09:13:16.887Z,3.44
2023-01-25T09:18:40.380Z,3.52
2023-01-25T09:24:06.338Z,3.61
2023-01-25T09:29:28.898Z,3.69
2023-01-25T09:34:50.446Z,3.79
2023-01-25T09:40:23.749Z,3.92
2023-01-25T09:45:45.248Z,3.92
2023-01-25T09:51:15.239Z,3.99
2023-01-25T09:56:37.903Z,4.06
2023-01-25T10:02:05.927Z,4.08
2023-01-25T10:08:02.405Z,4.01
2023-01-25T10:13:24.338Z,4.01
2023-01-25T10:18:56.783Z,4.00
2023-01-25T10:24:40.760Z,3.96
2023-01-25T10:30:21.440Z,4.00
2023-01-25T10:35:47.572Z,3.79
2023-01-25T10:41:15.953Z,3.96
2023-01-25T10:46:39.673Z,3.98
2023-01-25T10:52:24.548Z,3.99
2023-01-25T10:57:49.678Z,3.87
2023-01-25T11:03:21.100Z,3.84
2023-01-25T11:08:43.126Z,3.89
2023-01-25T11:14:16.856Z,3.91
2023-01-25T11:19:40.443Z,4.06
2023-01-25T11:25:24.950Z,4.08
2023-01-25T11:30:46.822Z,4.11
2023-01-25T11:36:28.961Z,4.14
2023-01-25T11:42:02.190Z,4.12
2023-01-25T11:47:35.284Z,4.25
2023-01-25T11:53:15.621Z,4.20
2023-01-25T11:58:42.042Z,4.28
2023-01-25T12:04:25.823Z,4.34
2023-01-25T12:10:25.874Z,4.14
2023-01-25T12:16:13.699Z,4.00
2023-01-25T12:22:02.802Z,4.10
2023-01-25T12:27:38.704Z,4.09
2023-01-25T12:33:14.348Z,3.97
2023-01-25T12:38:42.751Z,3.93
2023-01-25T12:44:07.845Z,4.03
2023-01-25T12:49:38.597Z,3.92
2023-01-25T12:55:03.852Z,3.77
2023-01-25T13:00:41.504Z,3.75
2023-01-25T13:06:09.555Z,3.74
2023-01-25T13:11:41.957Z,3.68
2023-01-25T13:17:21.500Z,3.64
2023-01-25T13:22:44.948Z,3.68
2023-01-25T13:28:40.922Z,3.65
2023-01-25T13:34:02.193Z,3.75
2023-01-25T13:39:28.960Z,3.75
2023-01-25T13:44:53.479Z,3.79
2023-01-25T13:50:26.774Z,3.76
2023-01-25T13:55:56.885Z,3.81
2023-01-25T14:01:23.487Z,3.72
2023-01-25T14:06:45.100Z,3.82
2023-01-25T14:12:11.018Z,3.81
2023-01-25T14:17:31.434Z,3.89
2023-01-25T14:22:52.326Z,3.96
2023-01-25T14:28:14.966Z,4.01
2023-01-25T14:33:39.528Z,4.00
2023-01-25T14:39:02.587Z,3.97
2023-01-25T14:44:32.933Z,3.80
2023-01-25T14:49:53.924Z,3.83
2023-01-25T14:55:14.663Z,3.74
2023-01-25T15:00:38.642Z,3.67
2023-01-25T15:06:03.880Z,3.69
2023-01-25T15:11:38.661Z,3.76
2023-01-25T15:16:59.130Z,3.84
2023-01-25T15:22:19.475Z,3.79
2023-01-25T15:27:40.783Z,3.82
2023-01-25T15:33:02.026Z,3.88
2023-01-25T15:38:23.041Z,3.98
2023-01-25T15:43:45.262Z,4.00
2023-01-25T15:49:07.531Z,3.99
2023-01-25T15:54:28.118Z,3.93
2023-01-25T15:59:49.320Z,3.90
2023-01-25T16:05:09.898Z,3.91
2023-01-25T16:10:31.167Z,3.78
2023-01-25T16:15:55.775Z,3.87
2023-01-25T16:21:16.786Z,4.26
2023-01-25T16:26:46.128Z,4.13
2023-01-25T16:32:06.947Z,4.18
2023-01-25T16:37:27.725Z,3.98
2023-01-25T16:42:48.613Z,3.97
2023-01-25T16:48:15.797Z,3.90
2023-01-25T16:53:36.588Z,3.96
2023-01-25T16:59:01.328Z,3.97
2023-01-25T17:04:22.218Z,3.89
2023-01-25T17:09:43.734Z,3.80
2023-01-25T17:15:05.077Z,3.79
2023-01-25T17:20:25.560Z,3.88
2023-01-25T17:25:46.255Z,3.88
2023-01-25T17:31:14.978Z,3.84
2023-01-25T17:36:36.014Z,3.80
2023-01-25T17:41:56.882Z,3.81
2023-01-25T17:47:17.513Z,3.93
2023-01-25T17:52:38.100Z,4.02
2023-01-25T17:57:58.930Z,4.08
2023-01-25T18:03:19.799Z,4.19
2023-01-25T18:08:42.752Z,4.32
2023-01-25T18:14:10.559Z,4.35
2023-01-25T18:19:32.900Z,4.46
2023-01-25T18:24:53.889Z,4.43
2023-01-25T18:30:32.778Z,4.36
2023-01-25T18:35:54.322Z,4.43
2023-01-25T18:41:15.491Z,4.40
2023-01-25T18:46:37.178Z,4.42
2023-01-25T18:52:10.930Z,4.42
2023-01-25T18:57:32.871Z,4.55
2023-01-25T19:02:53.612Z,4.40
2023-01-25T19:08:15.092Z,4.38
2023-01-25T19:13:37.607Z,4.38
2023-01-25T19:18:58.253Z,4.37
2023-01-25T19:24:20.729Z,4.39
2023-01-25T19:29:41.371Z,4.34
2023-01-25T19:35:01.853Z,4.31
2023-01-25T19:40:24.907Z,4.34
2023-01-25T19:45:45.427Z,4.28
2023-01-25T19:51:17.772Z,4.29
2023-01-25T19:56:41.289Z,4.26
2023-01-25T20:02:02.146Z,4.27
2023-01-25T20:07:22.983Z,4.26
2023-01-25T20:12:43.538Z,4.11
2023-01-25T20:18:04.326Z,4.04
2023-01-25T20:23:24.891Z,3.98
2023-01-25T20:28:48.728Z,3.95
2023-01-25T20:34:14.427Z,3.92
2023-01-25T20:39:34.870Z,3.93
2023-01-25T20:44:55.470Z,3.96
2023-01-25T20:50:16.874Z,3.94
2023-01-25T20:55:37.507Z,3.90
2023-01-25T21:00:58.662Z,3.96
2023-01-25T21:06:19.488Z,3.89
2023-01-25T21:11:40.054Z,3.97
2023-01-25T21:17:00.800Z,4.05
2023-01-25T21:22:21.659Z,4.06
2023-01-25T21:27:42.718Z,4.11
2023-01-25T21:33:03.383Z,4.09
2023-01-25T21:38:25.256Z,4.08
2023-01-25T21:44:29.915Z,4.07
2023-01-25T21:50:09.916Z,4.05
2023-01-25T21:55:30.652Z,4.04
2023-01-25T22:00:51.036Z,4.10
2023-01-25T22:06:11.869Z,4.19
2023-01-25T22:11:32.576Z,4.24
2023-01-25T22:16:53.445Z,4.29
2023-01-25T22:22:14.078Z,4.37
2023-01-25T22:27:46.675Z,4.42
2023-01-25T22:33:07.153Z,4.48
2023-01-25T22:38:28.707Z,4.44
2023-01-25T22:43:49.602Z,4.42
2023-01-25T22:49:10.661Z,4.48
2023-01-25T22:54:31.122Z,4.42
2023-01-25T22:59:51.931Z,4.55
2023-01-25T23:05:12.851Z,4.43
2023-01-25T23:10:33.445Z,4.48
2023-01-25T23:15:54.889Z,4.65
2023-01-25T23:21:21.264Z,4.59
2023-01-25T23:26:46.709Z,4.70
2023-01-25T23:32:07.918Z,4.74
2023-01-25T23:37:28.785Z,4.67
2023-01-25T23:42:49.332Z,4.68
2023-01-25T23:48:10.347Z,4.81
2023-01-25T23:53:31.698Z,4.97
2023-01-25T23:58:52.923Z,5.08
